Time;durP1;ratioP1;P1;durP2;ratioP2;P2;SDS_P1;SDS_P2;PMS_P1;PMS_P2;Temp;Humidity;BMP_temperature;BMP_pressure;BME280_temperature;BME280_humidity;BME280_pressure;Samples;Min_cycle;Max_cycle;Signal;HPM_P1;HPM_P2
2022/08/02 01:15:34;;;;;;;1999.90;999.90;;;;;;;;;;5019857;23;20276;-70
2022/08/02 01:18:23;;;;;;;1999.90;999.90;;;;;;;;;;5006703;28;20210;-70
2022/08/02 01:21:21;;;;;;;1999.90;999.90;;;;;;;;;;5013493;28;20274;-69
2022/08/02 01:24:21;;;;;;;1999.90;999.90;;;;;;;;;;5011332;28;20290;-67
2022/08/02 01:27:11;;;;;;;1999.90;999.90;;;;;;;;;;4991958;28;20409;-67
2022/08/02 01:29:59;;;;;;;1999.90;999.90;;;;;;;;;;4993060;28;20289;-70
2022/08/02 01:32:46;;;;;;;1999.90;999.90;;;;;;;;;;4993644;28;20211;-70
2022/08/02 01:35:35;;;;;;;1999.90;999.90;;;;;;;;;;4993621;28;20211;-70
2022/08/02 01:38:23;;;;;;;1999.90;999.90;;;;;;;;;;4993227;28;20246;-70
2022/08/02 01:41:10;;;;;;;1999.90;999.90;;;;;;;;;;5002012;28;20296;-70
2022/08/02 01:43:56;;;;;;;1999.90;999.90;;;;;;;;;;5013016;28;20228;-70
2022/08/02 01:46:44;;;;;;;1999.90;999.90;;;;;;;;;;5012989;28;20573;-70
2022/08/02 01:49:30;;;;;;;1999.90;999.90;;;;;;;;;;5012404;28;20221;-70
2022/08/02 01:52:22;;;;;;;1999.90;999.90;;;;;;;;;;5012704;28;20202;-70
2022/08/02 01:55:09;;;;;;;1999.90;999.90;;;;;;;;;;5012551;28;20230;-70
2022/08/02 01:57:56;;;;;;;1999.90;999.90;;;;;;;;;;5012538;28;20571;-70
2022/08/02 02:00:42;;;;;;;1999.90;999.90;;;;;;;;;;5012734;28;20229;-70
2022/08/02 02:03:29;;;;;;;1999.90;999.90;;;;;;;;;;5012361;28;20389;-70
2022/08/02 02:06:15;;;;;;;1999.90;999.90;;;;;;;;;;5012721;28;20213;-70
2022/08/02 02:09:00;;;;;;;1999.90;999.90;;;;;;;;;;5012379;28;20210;-70
2022/08/02 02:11:45;;;;;;;1999.90;999.90;;;;;;;;;;5012613;28;20739;-70
2022/08/02 02:14:31;;;;;;;1999.90;999.90;;;;;;;;;;5012058;28;20360;-71
2022/08/02 02:17:16;;;;;;;1999.90;999.90;;;;;;;;;;5006620;28;20693;-70
2022/08/02 02:20:02;;;;;;;1999.90;999.90;;;;;;;;;;4992420;28;20203;-70
2022/08/02 02:22:48;;;;;;;1999.90;999.90;;;;;;;;;;4992851;28;20214;-71
2022/08/02 02:25:33;;;;;;;1999.90;999.90;;;;;;;;;;4992555;28;20258;-70
2022/08/02 02:28:21;;;;;;;1999.90;999.90;;;;;;;;;;4992430;28;20269;-72
2022/08/02 02:31:08;;;;;;;1999.90;999.90;;;;;;;;;;4992533;28;20282;-71
2022/08/02 02:33:56;;;;;;;1999.90;999.90;;;;;;;;;;4992673;28;20714;-69
2022/08/02 02:36:46;;;;;;;1999.90;999.90;;;;;;;;;;4992591;28;20402;-72
2022/08/02 02:39:32;;;;;;;1999.90;999.90;;;;;;;;;;4992362;28;20705;-72
2022/08/02 02:42:18;;;;;;;1999.90;999.90;;;;;;;;;;4996081;28;20210;-72
2022/08/02 02:45:04;;;;;;;1999.90;999.90;;;;;;;;;;4999047;28;20330;-73
2022/08/02 02:47:49;;;;;;;1999.90;999.90;;;;;;;;;;4998593;28;20408;-72
2022/08/02 02:50:35;;;;;;;1999.90;999.90;;;;;;;;;;4998830;28;20246;-72
2022/08/02 02:53:22;;;;;;;1999.90;999.90;;;;;;;;;;4998946;28;20233;-71
2022/08/02 02:56:07;;;;;;;1999.90;999.90;;;;;;;;;;4999107;28;20294;-71
2022/08/02 02:58:53;;;;;;;1999.90;999.90;;;;;;;;;;4998493;28;20210;-70
2022/08/02 03:01:39;;;;;;;1999.90;999.90;;;;;;;;;;4998198;28;20301;-71
2022/08/02 03:04:24;;;;;;;1999.90;999.90;;;;;;;;;;5012969;28;20584;-71
2022/08/02 03:07:10;;;;;;;1999.90;999.90;;;;;;;;;;5018384;28;20206;-71
2022/08/02 03:09:56;;;;;;;1999.90;999.90;;;;;;;;;;5018147;28;20882;-71
2022/08/02 03:12:41;;;;;;;1999.90;999.90;;;;;;;;;;5012024;28;20596;-72
2022/08/02 03:15:27;;;;;;;1999.90;999.90;;;;;;;;;;5018319;28;20299;-71
2022/08/02 03:18:27;;;;;;;1999.90;999.90;;;;;;;;;;5018149;28;20208;-71
2022/08/02 03:21:13;;;;;;;1999.90;999.90;;;;;;;;;;5018500;28;20209;-71
2022/08/02 03:23:58;;;;;;;1999.90;999.90;;;;;;;;;;5018403;28;20268;-71
2022/08/02 03:26:44;;;;;;;1999.90;999.90;;;;;;;;;;5016278;28;20702;-72
2022/08/02 03:29:29;;;;;;;1999.90;999.90;;;;;;;;;;5021612;28;20220;-71
2022/08/02 03:32:16;;;;;;;1999.90;999.90;;;;;;;;;;5019455;28;20407;-70
2022/08/02 03:35:01;;;;;;;1999.90;999.90;;;;;;;;;;5016892;28;20229;-71
2022/08/02 03:37:46;;;;;;;1999.90;999.90;;;;;;;;;;5018438;28;20213;-71
2022/08/02 03:40:31;;;;;;;1999.90;999.90;;;;;;;;;;5018732;28;20212;-72
2022/08/02 03:43:18;;;;;;;1999.90;999.90;;;;;;;;;;5018206;28;20587;-72
2022/08/02 03:46:03;;;;;;;1999.90;999.90;;;;;;;;;;5018235;28;20586;-71
2022/08/02 03:48:49;;;;;;;1999.90;999.90;;;;;;;;;;5016895;28;20299;-71
2022/08/02 03:51:34;;;;;;;1999.90;999.90;;;;;;;;;;5017777;28;20300;-71
2022/08/02 03:54:21;;;;;;;1999.90;999.90;;;;;;;;;;5014143;28;20226;-71
2022/08/02 03:57:07;;;;;;;1999.90;999.90;;;;;;;;;;5014989;28;20207;-72
2022/08/02 03:59:53;;;;;;;1999.90;999.90;;;;;;;;;;5014386;28;20269;-71
2022/08/02 04:02:38;;;;;;;1999.90;999.90;;;;;;;;;;5006742;28;20747;-71
2022/08/02 04:05:24;;;;;;;1999.90;999.90;;;;;;;;;;5009445;28;20618;-72
2022/08/02 04:08:09;;;;;;;1999.90;999.90;;;;;;;;;;5014466;28;20206;-71
2022/08/02 04:13:57;;;;;;;1999.90;999.90;;;;;;;;;;5013158;28;20241;-71
2022/08/02 04:16:45;;;;;;;1999.90;999.90;;;;;;;;;;5008970;28;20219;-70
2022/08/02 04:19:31;;;;;;;1999.90;999.90;;;;;;;;;;5013591;28;20203;-72
2022/08/02 04:22:16;;;;;;;1999.90;999.90;;;;;;;;;;5013968;28;20214;-71
2022/08/02 04:25:02;;;;;;;1999.90;999.90;;;;;;;;;;5010399;28;20226;-72
2022/08/02 04:27:48;;;;;;;1999.90;999.90;;;;;;;;;;5012330;28;20819;-71
2022/08/02 04:30:33;;;;;;;1999.90;999.90;;;;;;;;;;5012836;28;20221;-71
2022/08/02 04:33:20;;;;;;;1999.90;999.90;;;;;;;;;;5012986;28;20233;-70
2022/08/02 04:36:06;;;;;;;1999.90;999.90;;;;;;;;;;5012966;28;20198;-72
2022/08/02 04:38:51;;;;;;;1999.90;999.90;;;;;;;;;;5012742;28;20572;-71
2022/08/02 04:41:39;;;;;;;1999.90;999.90;;;;;;;;;;5011063;28;20210;-71
2022/08/02 04:44:25;;;;;;;1999.90;999.90;;;;;;;;;;5009348;28;20226;-71
2022/08/02 04:47:10;;;;;;;1999.90;999.90;;;;;;;;;;4994068;28;20207;-72
2022/08/02 04:49:56;;;;;;;1999.90;999.90;;;;;;;;;;4993819;28;20293;-71
2022/08/02 04:52:41;;;;;;;1999.90;999.90;;;;;;;;;;5009661;28;20214;-71
2022/08/02 04:55:28;;;;;;;1999.90;999.90;;;;;;;;;;5012706;28;20206;-71
2022/08/02 04:58:14;;;;;;;1999.90;999.90;;;;;;;;;;5012237;28;20322;-72
2022/08/02 05:00:59;;;;;;;1999.90;999.90;;;;;;;;;;5012354;28;20206;-72
2022/08/02 05:03:44;;;;;;;1999.90;999.90;;;;;;;;;;5012426;28;20596;-71
2022/08/02 05:06:30;;;;;;;1999.90;999.90;;;;;;;;;;5013035;28;20412;-71
2022/08/02 05:09:15;;;;;;;1999.90;999.90;;;;;;;;;;5013332;28;20202;-71
2022/08/02 05:12:00;;;;;;;1999.90;999.90;;;;;;;;;;5013396;28;20274;-72
2022/08/02 05:14:45;;;;;;;1999.90;999.90;;;;;;;;;;5013340;28;20226;-70
2022/08/02 05:17:30;;;;;;;1999.90;999.90;;;;;;;;;;5013563;28;20211;-72
2022/08/02 05:20:15;;;;;;;1999.90;999.90;;;;;;;;;;5013493;28;20230;-72
2022/08/02 05:23:02;;;;;;;1999.90;999.90;;;;;;;;;;5012691;28;20420;-72
2022/08/02 05:25:47;;;;;;;1999.90;999.90;;;;;;;;;;5013415;28;20206;-71
2022/08/02 05:28:32;;;;;;;1999.90;999.90;;;;;;;;;;5013094;28;20728;-72
2022/08/02 05:31:17;;;;;;;1999.90;999.90;;;;;;;;;;5013209;28;20262;-72
2022/08/02 05:34:02;;;;;;;1999.90;999.90;;;;;;;;;;5011109;28;20305;-72
2022/08/02 05:36:47;;;;;;;1999.90;999.90;;;;;;;;;;5011647;28;20333;-71
2022/08/02 05:39:33;;;;;;;1999.90;999.90;;;;;;;;;;5012031;28;20230;-72
2022/08/02 05:42:18;;;;;;;1999.90;999.90;;;;;;;;;;4993468;28;20215;-72
2022/08/02 05:45:03;;;;;;;1999.90;999.90;;;;;;;;;;5012772;28;20230;-71
2022/08/02 05:47:48;;;;;;;1999.90;999.90;;;;;;;;;;5012714;28;20254;-71
2022/08/02 05:50:34;;;;;;;1999.90;999.90;;;;;;;;;;5012794;28;20582;-71
2022/08/02 05:53:23;;;;;;;1999.90;999.90;;;;;;;;;;5012796;28;20230;-71
2022/08/02 05:56:17;;;;;;;1999.90;999.90;;;;;;;;;;5001882;28;20219;-71
2022/08/02 05:59:03;;;;;;;1999.90;999.90;;;;;;;;;;4992890;28;20247;-72
2022/08/02 06:01:53;;;;;;;1999.90;999.90;;;;;;;;;;4993188;28;20205;-72
2022/08/02 06:04:44;;;;;;;1999.90;999.90;;;;;;;;;;4996383;28;20224;-70
2022/08/02 06:07:29;;;;;;;1999.90;999.90;;;;;;;;;;5009035;28;20573;-70
2022/08/02 06:10:15;;;;;;;1999.90;999.90;;;;;;;;;;5013552;28;20213;-70
2022/08/02 06:13:05;;;;;;;1999.90;999.90;;;;;;;;;;5013821;28;20748;-71
2022/08/02 06:15:51;;;;;;;1999.90;999.90;;;;;;;;;;5014416;28;21039;-69
2022/08/02 06:18:36;;;;;;;1999.90;999.90;;;;;;;;;;5016475;28;20934;-70
2022/08/02 06:21:22;;;;;;;1999.90;999.90;;;;;;;;;;5009367;28;20215;-72
2022/08/02 06:24:08;;;;;;;1999.90;999.90;;;;;;;;;;5012673;28;20320;-71
2022/08/02 06:26:56;;;;;;;1999.90;999.90;;;;;;;;;;5019207;28;20261;-70
2022/08/02 06:29:43;;;;;;;1999.90;999.90;;;;;;;;;;5011694;28;20222;-71
2022/08/02 06:32:28;;;;;;;1999.90;999.90;;;;;;;;;;5013195;28;20345;-71
2022/08/02 06:35:12;;;;;;;1999.90;999.90;;;;;;;;;;5023115;28;20732;-71
2022/08/02 06:37:59;;;;;;;1999.90;999.90;;;;;;;;;;5028560;28;20300;-71
2022/08/02 06:40:46;;;;;;;1999.90;999.90;;;;;;;;;;5021322;28;20582;-71
2022/08/02 06:43:34;;;;;;;1999.90;999.90;;;;;;;;;;5016591;28;20236;-72
2022/08/02 06:46:21;;;;;;;1999.90;999.90;;;;;;;;;;5014428;28;20837;-71
2022/08/02 06:49:06;;;;;;;1999.90;999.90;;;;;;;;;;5009426;28;20809;-70
2022/08/02 06:51:51;;;;;;;1999.90;999.90;;;;;;;;;;5018173;28;20316;-72
2022/08/02 06:54:37;;;;;;;1999.90;999.90;;;;;;;;;;5015527;28;20356;-70
2022/08/02 06:57:22;;;;;;;1999.90;999.90;;;;;;;;;;5014832;28;21024;-70
2022/08/02 07:00:08;;;;;;;1999.90;999.90;;;;;;;;;;5008979;28;20569;-72
2022/08/02 07:02:55;;;;;;;1999.90;999.90;;;;;;;;;;5019170;28;20205;-71
2022/08/02 07:05:40;;;;;;;1999.90;999.90;;;;;;;;;;5015192;28;20213;-71
2022/08/02 07:08:25;;;;;;;1999.90;999.90;;;;;;;;;;5010595;28;20681;-71
2022/08/02 07:11:10;;;;;;;1999.90;999.90;;;;;;;;;;5009728;28;20285;-70
2022/08/02 07:13:55;;;;;;;1999.90;999.90;;;;;;;;;;5016254;28;20410;-70
2022/08/02 07:16:40;;;;;;;1999.90;999.90;;;;;;;;;;5015028;28;20210;-72
2022/08/02 07:19:27;;;;;;;1999.90;999.90;;;;;;;;;;5018758;28;20213;-72
2022/08/02 07:22:12;;;;;;;1999.90;999.90;;;;;;;;;;5011265;28;20203;-71
2022/08/02 07:24:59;;;;;;;1999.90;999.90;;;;;;;;;;5015547;28;20238;-71
2022/08/02 07:27:44;;;;;;;1999.90;999.90;;;;;;;;;;5016927;28;20268;-71
2022/08/02 07:30:30;;;;;;;1999.90;999.90;;;;;;;;;;5027109;28;20677;-70
2022/08/02 07:33:15;;;;;;;1999.90;999.90;;;;;;;;;;5022093;28;20221;-71
2022/08/02 07:36:02;;;;;;;1999.90;999.90;;;;;;;;;;5016622;28;20225;-70
2022/08/02 07:38:48;;;;;;;1999.90;999.90;;;;;;;;;;5019470;28;20257;-70
2022/08/02 07:41:33;;;;;;;1999.90;999.90;;;;;;;;;;5027217;28;20321;-70
2022/08/02 07:44:19;;;;;;;1999.90;999.90;;;;;;;;;;5015129;28;20234;-72
2022/08/02 07:47:04;;;;;;;1999.90;999.90;;;;;;;;;;5015651;28;20215;-73
2022/08/02 07:49:49;;;;;;;1999.90;999.90;;;;;;;;;;5018492;28;20269;-72
2022/08/02 07:52:35;;;;;;;1999.90;999.90;;;;;;;;;;5016912;28;20226;-72
2022/08/02 07:55:20;;;;;;;1999.90;999.90;;;;;;;;;;5017530;28;20626;-71
2022/08/02 07:58:05;;;;;;;1999.90;999.90;;;;;;;;;;5024406;28;20346;-71
2022/08/02 08:00:50;;;;;;;1999.90;999.90;;;;;;;;;;5014928;28;20577;-70
2022/08/02 08:03:35;;;;;;;1999.90;999.90;;;;;;;;;;5015609;28;20751;-73
2022/08/02 08:06:20;;;;;;;1999.90;999.90;;;;;;;;;;5030138;28;20218;-70
2022/08/02 08:09:06;;;;;;;1999.90;999.90;;;;;;;;;;5013870;28;20467;-72
2022/08/02 08:11:51;;;;;;;1999.90;999.90;;;;;;;;;;5021924;28;20230;-71
2022/08/02 08:14:37;;;;;;;1999.90;999.90;;;;;;;;;;5012962;28;20273;-71
2022/08/02 08:17:21;;;;;;;1999.90;999.90;;;;;;;;;;5017707;28;20210;-71
2022/08/02 08:20:07;;;;;;;1999.90;999.90;;;;;;;;;;5012002;28;20207;-72
2022/08/02 08:22:52;;;;;;;1999.90;999.90;;;;;;;;;;5025813;28;20205;-70
2022/08/02 08:25:39;;;;;;;1999.90;999.90;;;;;;;;;;5015843;28;20214;-71
2022/08/02 08:28:24;;;;;;;1999.90;999.90;;;;;;;;;;5018558;28;20202;-72
2022/08/02 08:31:09;;;;;;;1999.90;999.90;;;;;;;;;;5012596;28;20671;-71
2022/08/02 08:33:55;;;;;;;1999.90;999.90;;;;;;;;;;5014340;28;20237;-70
2022/08/02 08:36:40;;;;;;;1999.90;999.90;;;;;;;;;;5017122;28;20230;-71
2022/08/02 08:39:25;;;;;;;1999.90;999.90;;;;;;;;;;5020453;28;20751;-71
2022/08/02 08:42:12;;;;;;;1999.90;999.90;;;;;;;;;;5027483;28;20201;-69
2022/08/02 08:44:57;;;;;;;1999.90;999.90;;;;;;;;;;5008458;28;20249;-70
2022/08/02 08:47:42;;;;;;;1999.90;999.90;;;;;;;;;;5007840;28;20222;-71
2022/08/02 08:50:30;;;;;;;1999.90;999.90;;;;;;;;;;5014998;28;20202;-72
2022/08/02 08:53:16;;;;;;;1999.90;999.90;;;;;;;;;;5018723;28;20602;-72
2022/08/02 08:56:01;;;;;;;1999.90;999.90;;;;;;;;;;5017064;28;20292;-70
2022/08/02 08:58:47;;;;;;;1999.90;999.90;;;;;;;;;;5015455;28;20268;-71
2022/08/02 09:01:32;;;;;;;1999.90;999.90;;;;;;;;;;5009692;28;20605;-71
2022/08/02 09:04:17;;;;;;;1999.90;999.90;;;;;;;;;;5017498;28;20591;-72
2022/08/02 09:07:02;;;;;;;1999.90;999.90;;;;;;;;;;5023700;28;20209;-71
2022/08/02 09:09:47;;;;;;;1999.90;999.90;;;;;;;;;;5023353;28;20261;-72
2022/08/02 09:12:32;;;;;;;1999.90;999.90;;;;;;;;;;5017561;28;20342;-72
2022/08/02 09:15:24;;;;;;;1999.90;999.90;;;;;;;;;;5011547;28;20234;-71
2022/08/02 09:18:09;;;;;;;1999.90;999.90;;;;;;;;;;5011293;28;20202;-71
2022/08/02 09:20:57;;;;;;;1999.90;999.90;;;;;;;;;;5012457;28;20695;-71
2022/08/02 09:23:43;;;;;;;1999.90;999.90;;;;;;;;;;5010570;28;20740;-71
2022/08/02 09:26:28;;;;;;;1999.90;999.90;;;;;;;;;;5012568;28;20304;-72
2022/08/02 09:29:13;;;;;;;1999.90;999.90;;;;;;;;;;5020227;28;20338;-71
2022/08/02 09:32:03;;;;;;;1999.90;999.90;;;;;;;;;;5021629;28;20218;-71
2022/08/02 09:34:50;;;;;;;1999.90;999.90;;;;;;;;;;5021301;28;20346;-72
2022/08/02 09:37:35;;;;;;;1999.90;999.90;;;;;;;;;;5014688;28;20446;-72
2022/08/02 09:40:34;;;;;;;1999.90;999.90;;;;;;;;;;5011696;28;20264;-73
2022/08/02 09:43:19;;;;;;;1999.90;999.90;;;;;;;;;;5003637;28;20230;-72
2022/08/02 09:46:11;;;;;;;1999.90;999.90;;;;;;;;;;5017341;28;20587;-72
2022/08/02 09:49:00;;;;;;;1999.90;999.90;;;;;;;;;;5020095;28;20202;-72
2022/08/02 09:51:49;;;;;;;1999.90;999.90;;;;;;;;;;5013777;28;20215;-70
2022/08/02 09:54:35;;;;;;;1999.90;999.90;;;;;;;;;;5021564;28;20398;-70
2022/08/02 09:57:27;;;;;;;1999.90;999.90;;;;;;;;;;5012714;28;20284;-70
2022/08/02 10:00:12;;;;;;;1999.90;999.90;;;;;;;;;;5016834;28;20209;-71
2022/08/02 10:03:07;;;;;;;1999.90;999.90;;;;;;;;;;5025978;28;20244;-71
2022/08/02 10:05:56;;;;;;;1999.90;999.90;;;;;;;;;;5016746;28;20217;-71
2022/08/02 10:08:41;;;;;;;1999.90;999.90;;;;;;;;;;5017670;28;20206;-70
2022/08/02 10:11:27;;;;;;;1999.90;999.90;;;;;;;;;;5009861;28;20701;-71
2022/08/02 10:14:12;;;;;;;1999.90;999.90;;;;;;;;;;5011338;28;20233;-69
2022/08/02 10:16:58;;;;;;;1999.90;999.90;;;;;;;;;;5015698;28;20282;-71
2022/08/02 10:19:44;;;;;;;1999.90;999.90;;;;;;;;;;5023542;28;20213;-70
2022/08/02 10:22:31;;;;;;;1999.90;999.90;;;;;;;;;;5020276;28;20207;-70
2022/08/02 10:25:17;;;;;;;1999.90;999.90;;;;;;;;;;5015883;28;20728;-71
2022/08/02 10:28:02;;;;;;;1999.90;999.90;;;;;;;;;;5010016;28;20579;-73
2022/08/02 10:30:48;;;;;;;1999.90;999.90;;;;;;;;;;5020345;28;20205;-71
2022/08/02 10:33:34;;;;;;;1999.90;999.90;;;;;;;;;;5016432;28;20234;-71
2022/08/02 10:36:22;;;;;;;1999.90;999.90;;;;;;;;;;5009013;28;20743;-70
2022/08/02 10:39:09;;;;;;;1999.90;999.90;;;;;;;;;;5010871;28;20217;-71
2022/08/02 10:41:53;;;;;;;1999.90;999.90;;;;;;;;;;5016545;28;20286;-70
2022/08/02 10:44:40;;;;;;;1999.90;999.90;;;;;;;;;;5020046;28;21219;-71
2022/08/02 10:47:25;;;;;;;1999.90;999.90;;;;;;;;;;5007992;28;20226;-71
2022/08/02 10:50:10;;;;;;;1999.90;999.90;;;;;;;;;;5009753;28;20389;-71
2022/08/02 10:53:10;;;;;;;1999.90;999.90;;;;;;;;;;5007559;28;20230;-71
2022/08/02 10:55:57;;;;;;;1999.90;999.90;;;;;;;;;;5010870;28;20708;-71
2022/08/02 10:58:42;;;;;;;1999.90;999.90;;;;;;;;;;5011287;28;20452;-71
2022/08/02 11:01:31;;;;;;;1999.90;999.90;;;;;;;;;;5015303;28;20213;-70
2022/08/02 11:04:16;;;;;;;1999.90;999.90;;;;;;;;;;5013394;28;20724;-71
2022/08/02 11:07:09;;;;;;;1999.90;999.90;;;;;;;;;;5022655;28;20214;-71
2022/08/02 11:09:54;;;;;;;1999.90;999.90;;;;;;;;;;5015694;28;20349;-72
2022/08/02 11:12:58;;;;;;;1999.90;999.90;;;;;;;;;;5019690;28;20350;-72
2022/08/02 11:16:01;;;;;;;1999.90;999.90;;;;;;;;;;5027365;28;20671;-72
2022/08/02 11:19:07;;;;;;;1999.90;999.90;;;;;;;;;;5009513;28;20215;-70
2022/08/02 11:22:00;;;;;;;1999.90;999.90;;;;;;;;;;5016474;28;20291;-70
2022/08/02 11:24:46;;;;;;;1999.90;999.90;;;;;;;;;;5012148;28;20230;-71
2022/08/02 11:27:30;;;;;;;1999.90;999.90;;;;;;;;;;5020855;28;20206;-70
2022/08/02 11:30:17;;;;;;;1999.90;999.90;;;;;;;;;;5017563;28;20198;-69
2022/08/02 11:33:02;;;;;;;1999.90;999.90;;;;;;;;;;5016699;28;20528;-70
2022/08/02 11:35:47;;;;;;;1999.90;999.90;;;;;;;;;;5014642;28;20206;-70
2022/08/02 11:38:32;;;;;;;1999.90;999.90;;;;;;;;;;5027416;28;20209;-70
2022/08/02 11:41:18;;;;;;;1999.90;999.90;;;;;;;;;;5018562;28;20210;-69
2022/08/02 11:44:04;;;;;;;1999.90;999.90;;;;;;;;;;5020078;28;20806;-71
2022/08/02 11:46:57;;;;;;;1999.90;999.90;;;;;;;;;;5017408;28;20288;-71
2022/08/02 11:49:43;;;;;;;1999.90;999.90;;;;;;;;;;5026845;28;20798;-69
2022/08/02 11:52:32;;;;;;;1999.90;999.90;;;;;;;;;;5016836;28;20218;-70
2022/08/02 11:55:17;;;;;;;1999.90;999.90;;;;;;;;;;5018147;28;20605;-71
2022/08/02 11:58:04;;;;;;;1999.90;999.90;;;;;;;;;;5019081;28;20213;-71
2022/08/02 12:00:49;;;;;;;1999.90;999.90;;;;;;;;;;5011736;28;20297;-71
2022/08/02 12:03:39;;;;;;;1999.90;999.90;;;;;;;;;;5015550;28;20266;-72
2022/08/02 12:06:24;;;;;;;1999.90;999.90;;;;;;;;;;5015978;28;20286;-71
2022/08/02 12:09:10;;;;;;;1999.90;999.90;;;;;;;;;;5021858;28;20268;-71
2022/08/02 12:11:56;;;;;;;1999.90;999.90;;;;;;;;;;5028854;28;20333;-71
2022/08/02 12:14:42;;;;;;;1999.90;999.90;;;;;;;;;;5009905;28;20241;-71
2022/08/02 12:20:36;;;;;;;1999.90;999.90;;;;;;;;;;5020825;28;20206;-70
2022/08/02 12:23:21;;;;;;;1999.90;999.90;;;;;;;;;;5012793;28;20215;-72
2022/08/02 12:26:08;;;;;;;1999.90;999.90;;;;;;;;;;5010841;28;20207;-69
2022/08/02 12:28:56;;;;;;;1999.90;999.90;;;;;;;;;;5010883;28;20212;-71
2022/08/02 12:31:42;;;;;;;1999.90;999.90;;;;;;;;;;5016349;28;20214;-71
2022/08/02 12:34:28;;;;;;;1999.90;999.90;;;;;;;;;;5024139;28;20292;-71
2022/08/02 12:37:14;;;;;;;1999.90;999.90;;;;;;;;;;5017307;28;21186;-72
2022/08/02 12:40:17;;;;;;;1999.90;999.90;;;;;;;;;;5019696;28;20198;-71
2022/08/02 12:43:03;;;;;;;1999.90;999.90;;;;;;;;;;5012258;28;20249;-70
2022/08/02 12:45:50;;;;;;;1999.90;999.90;;;;;;;;;;5025670;28;20639;-71
2022/08/02 12:48:36;;;;;;;1999.90;999.90;;;;;;;;;;5020870;28;20913;-71
2022/08/02 12:51:22;;;;;;;1999.90;999.90;;;;;;;;;;5021033;28;20784;-70
2022/08/02 12:54:13;;;;;;;1999.90;999.90;;;;;;;;;;5017676;28;20238;-70
2022/08/02 12:56:58;;;;;;;1999.90;999.90;;;;;;;;;;5010583;28;20808;-70
2022/08/02 12:59:44;;;;;;;1999.90;999.90;;;;;;;;;;5023529;28;20316;-72
2022/08/02 13:02:30;;;;;;;1999.90;999.90;;;;;;;;;;5010798;28;20284;-72
2022/08/02 13:05:15;;;;;;;1999.90;999.90;;;;;;;;;;5014853;28;20372;-71
2022/08/02 13:08:00;;;;;;;1999.90;999.90;;;;;;;;;;5017042;28;20589;-71
2022/08/02 13:10:46;;;;;;;1999.90;999.90;;;;;;;;;;5014086;28;20214;-71
2022/08/02 13:13:31;;;;;;;1999.90;999.90;;;;;;;;;;5025703;28;20242;-70
2022/08/02 13:16:19;;;;;;;1999.90;999.90;;;;;;;;;;5018287;28;20700;-69
2022/08/02 13:19:04;;;;;;;1999.90;999.90;;;;;;;;;;5023152;28;20290;-69
2022/08/02 13:21:49;;;;;;;1999.90;999.90;;;;;;;;;;5013706;28;20211;-70
2022/08/02 13:24:34;;;;;;;1999.90;999.90;;;;;;;;;;5010027;28;20264;-70
2022/08/02 13:27:21;;;;;;;1999.90;999.90;;;;;;;;;;5019599;28;20280;-70
2022/08/02 13:30:07;;;;;;;1999.90;999.90;;;;;;;;;;5010402;28;20206;-70
2022/08/02 13:32:52;;;;;;;1999.90;999.90;;;;;;;;;;5018483;28;20222;-71
2022/08/02 13:35:37;;;;;;;1999.90;999.90;;;;;;;;;;5007347;28;20215;-71
2022/08/02 13:38:22;;;;;;;1999.90;999.90;;;;;;;;;;5010214;28;20206;-71
2022/08/02 13:41:10;;;;;;;1999.90;999.90;;;;;;;;;;5011934;28;20206;-72
2022/08/02 13:43:58;;;;;;;1999.90;999.90;;;;;;;;;;5009494;28;20223;-71
2022/08/02 13:46:43;;;;;;;1999.90;999.90;;;;;;;;;;5015810;28;20217;-70
2022/08/02 13:49:28;;;;;;;1999.90;999.90;;;;;;;;;;5009944;28;20217;-72
2022/08/02 13:52:13;;;;;;;1999.90;999.90;;;;;;;;;;5011145;28;20262;-71
2022/08/02 13:54:59;;;;;;;1999.90;999.90;;;;;;;;;;5018292;28;20222;-71
2022/08/02 13:57:44;;;;;;;1999.90;999.90;;;;;;;;;;5006558;28;20219;-69
2022/08/02 14:00:30;;;;;;;1999.90;999.90;;;;;;;;;;5015196;28;20797;-70
2022/08/02 14:03:15;;;;;;;1999.90;999.90;;;;;;;;;;5028137;28;21908;-70
2022/08/02 14:06:00;;;;;;;1999.90;999.90;;;;;;;;;;5008430;28;20211;-71
2022/08/02 14:08:45;;;;;;;1999.90;999.90;;;;;;;;;;5015857;28;20574;-72
2022/08/02 14:11:30;;;;;;;1999.90;999.90;;;;;;;;;;5008836;28;20214;-69
2022/08/02 14:14:16;;;;;;;1999.90;999.90;;;;;;;;;;5010574;28;20254;-69
2022/08/02 14:17:02;;;;;;;1999.90;999.90;;;;;;;;;;5019800;28;20206;-71
2022/08/02 14:19:47;;;;;;;1999.90;999.90;;;;;;;;;;5009573;28;20703;-70
2022/08/02 14:22:32;;;;;;;1999.90;999.90;;;;;;;;;;5011451;28;20223;-71
2022/08/02 14:25:17;;;;;;;1999.90;999.90;;;;;;;;;;5018143;28;20705;-71
2022/08/02 14:28:01;;;;;;;1999.90;999.90;;;;;;;;;;5014310;28;20439;-71
2022/08/02 14:30:46;;;;;;;1999.90;999.90;;;;;;;;;;5019813;28;20750;-70
2022/08/02 14:33:33;;;;;;;1999.90;999.90;;;;;;;;;;5007345;28;20246;-70
2022/08/02 14:36:18;;;;;;;1999.90;999.90;;;;;;;;;;5010113;28;20203;-70
2022/08/02 14:39:03;;;;;;;1999.90;999.90;;;;;;;;;;5011188;28;20202;-70
2022/08/02 14:41:48;;;;;;;1999.90;999.90;;;;;;;;;;5015458;28;20221;-71
2022/08/02 14:44:32;;;;;;;1999.90;999.90;;;;;;;;;;5024476;28;20596;-70
2022/08/02 14:47:17;;;;;;;1999.90;999.90;;;;;;;;;;5008842;28;20707;-70
2022/08/02 14:50:04;;;;;;;1999.90;999.90;;;;;;;;;;5018711;28;20676;-70
2022/08/02 14:52:49;;;;;;;1999.90;999.90;;;;;;;;;;5022646;28;20214;-70
2022/08/02 14:55:34;;;;;;;1999.90;999.90;;;;;;;;;;5028825;28;20222;-72
2022/08/02 14:58:19;;;;;;;1999.90;999.90;;;;;;;;;;5015706;28;20231;-70
2022/08/02 15:01:04;;;;;;;1999.90;999.90;;;;;;;;;;5012417;28;20213;-70
2022/08/02 15:03:49;;;;;;;1999.90;999.90;;;;;;;;;;5006375;28;20424;-71
2022/08/02 15:06:36;;;;;;;1999.90;999.90;;;;;;;;;;5019361;28;20793;-71
2022/08/02 15:09:21;;;;;;;1999.90;999.90;;;;;;;;;;5011534;28;20688;-71
2022/08/02 15:12:06;;;;;;;1999.90;999.90;;;;;;;;;;5009439;28;20693;-70
2022/08/02 15:14:52;;;;;;;1999.90;999.90;;;;;;;;;;5012901;28;20242;-70
2022/08/02 15:17:36;;;;;;;1999.90;999.90;;;;;;;;;;5018706;28;20260;-70
2022/08/02 15:20:21;;;;;;;1999.90;999.90;;;;;;;;;;5015453;28;20374;-71
2022/08/02 15:23:07;;;;;;;1999.90;999.90;;;;;;;;;;5013665;28;20407;-71
2022/08/02 15:25:52;;;;;;;1999.90;999.90;;;;;;;;;;5021970;28;20214;-71
2022/08/02 15:28:37;;;;;;;1999.90;999.90;;;;;;;;;;5012778;28;20302;-71
2022/08/02 15:31:23;;;;;;;1999.90;999.90;;;;;;;;;;5010317;28;20809;-70
2022/08/02 15:34:08;;;;;;;1999.90;999.90;;;;;;;;;;5018725;28;20280;-70
2022/08/02 15:36:52;;;;;;;1999.90;999.90;;;;;;;;;;5011180;28;20207;-70
2022/08/02 15:39:39;;;;;;;1999.90;999.90;;;;;;;;;;5014406;28;20233;-71
2022/08/02 15:42:23;;;;;;;1999.90;999.90;;;;;;;;;;5009960;28;20207;-71
2022/08/02 15:45:09;;;;;;;1999.90;999.90;;;;;;;;;;5009490;28;20297;-70
2022/08/02 15:47:54;;;;;;;1999.90;999.90;;;;;;;;;;5012063;28;20215;-70
2022/08/02 15:50:39;;;;;;;1999.90;999.90;;;;;;;;;;5012469;28;20219;-71
2022/08/02 15:53:24;;;;;;;1999.90;999.90;;;;;;;;;;5020493;28;20624;-71
2022/08/02 15:56:11;;;;;;;1999.90;999.90;;;;;;;;;;5010379;28;20210;-70
2022/08/02 15:58:56;;;;;;;1999.90;999.90;;;;;;;;;;5023107;28;20202;-72
2022/08/02 16:01:41;;;;;;;1999.90;999.90;;;;;;;;;;5020312;28;20789;-71
2022/08/02 16:04:26;;;;;;;1999.90;999.90;;;;;;;;;;5016336;28;20229;-71
2022/08/02 16:07:11;;;;;;;1999.90;999.90;;;;;;;;;;5018964;28;20561;-70
2022/08/02 16:09:55;;;;;;;1999.90;999.90;;;;;;;;;;5028319;28;20261;-72
2022/08/02 16:12:42;;;;;;;1999.90;999.90;;;;;;;;;;5013721;28;20293;-72
2022/08/02 16:15:27;;;;;;;1999.90;999.90;;;;;;;;;;5005975;28;20533;-71
2022/08/02 16:18:12;;;;;;;1999.90;999.90;;;;;;;;;;5015127;28;20675;-72
2022/08/02 16:20:56;;;;;;;1999.90;999.90;;;;;;;;;;5019485;28;20202;-70
2022/08/02 16:23:41;;;;;;;1999.90;999.90;;;;;;;;;;5015492;28;20272;-71
2022/08/02 16:26:28;;;;;;;1999.90;999.90;;;;;;;;;;5014944;28;20691;-71
2022/08/02 16:29:15;;;;;;;1999.90;999.90;;;;;;;;;;5016609;28;20205;-71
2022/08/02 16:32:00;;;;;;;1999.90;999.90;;;;;;;;;;5013142;28;20741;-71
2022/08/02 16:34:45;;;;;;;1999.90;999.90;;;;;;;;;;5027750;28;20372;-71
2022/08/02 16:37:29;;;;;;;1999.90;999.90;;;;;;;;;;5027500;28;20711;-71
2022/08/02 16:40:14;;;;;;;1999.90;999.90;;;;;;;;;;5021443;28;20210;-70
2022/08/02 16:42:59;;;;;;;1999.90;999.90;;;;;;;;;;5016641;28;20228;-70
2022/08/02 16:45:46;;;;;;;1999.90;999.90;;;;;;;;;;5019438;28;20803;-70
2022/08/02 16:48:31;;;;;;;1999.90;999.90;;;;;;;;;;5024729;28;20197;-71